AirNav   Air Wisconsin pilot careers
 
 1014 users online  

07MO Lake Sexton Airport
Warrensburg, Missouri, USA

GOING TO WARRENSBURG?


FAA INFORMATION EFFECTIVE 08 NOVEMBER 2018

Location

FAA Identifier: 07MO
Lat/Long: 38-39-00.0530N / 093-37-00.7660W
38-39.000883N / 093-37.012767W
38.6500147 / -93.6168794
(estimated)
Elevation: 880 ft. / 268 m (estimated)
Variation: 04E (1985)
From city: 9 miles SE of WARRENSBURG, MO
Time zone: UTC -6 (UTC -5 during Daylight Saving Time)
Zip code: 64761

Airport Operations

Airport use: Private use. Permission required prior to landing
Activation date: 05/1966
Control tower: no
ARTCC: KANSAS CITY CENTER
FSS: COLUMBIA FLIGHT SERVICE STATION
Attendance: UNATNDD
Wind indicator: yes
Segmented circle: no

Airport Communications

WX AWOS-3 at RCM (12 nm NW): 119.575 (660-422-7010)
WX AWOS-3 at GLY (18 nm S): 120.475 (660-885-3851)

Nearby radio navigation aids

VOR radial/distance  VOR name  Freq  Var
ANXr131/35.9NAPOLEON VORTAC114.0007E

 
NDB name  Hdg/Dist  Freq  Var  ID
GOLDEN VALLEY009/17.838801EGLY --. .-.. -.--
SEDALIA258/20.928103EDMO -.. -- ---
MARSHALL217/30.737103EPUR .--. ..- .-.

Airport Services

Airframe service: NONE
Powerplant service: NONE

Runway Information

Runway 17/35

Dimensions: 2700 x 40 ft. / 823 x 12 m
Surface: turf/gravel, in fair condition
RUNWAY 17  RUNWAY 35
Traffic pattern: leftleft
Obstructions: treestrees
RWY END 17 HANGER, POLES AND TREES.

Airport Ownership and Management from official FAA records

Ownership: Privately-owned
Owner: L SEXTON
PO BOX 381
WARRENSBURG, MO 64093
Phone 816-747-9532
Manager: L SEXTON
PO BOX 381
WARRENSBURG, MO 64093
Phone 816-747-9532

Additional Remarks

LOOSE GRAVEL CENTER 30' ON RWY

Instrument Procedures

There are no published instrument procedures at 07MO.

Some nearby airports with instrument procedures:

KSZL - Whiteman Air Force Base (6 nm NE)
KRCM - Skyhaven Airport (12 nm NW)
KGLY - Clinton Regional Airport (18 nm S)
KDMO - Sedalia Regional Airport (21 nm E)
KRAW - Warsaw Municipal Airport (22 nm SE)
 
Loc | Ops | Rwys | IFR | FBO | Links
Com | Nav | Svcs | Stats | Notes

Kansas City Aviation Department
 
Area around 07MO (Lake Sexton Airport)
 
Road maps at: MapQuest Bing Google
 
Aerial photo
No photo
 
Sectional chart

 
Airport distance calculator
Flying to Lake Sexton Airport? Find the distance to fly.

From to 07MO

Sunrise and sunset
Times for 18-Nov-2018
 Local
(UTC-6)
 Zulu
(UTC)
Morning civil twilight06:3212:32
Sunrise07:0113:01
Sunset16:5822:58
Evening civil twilight17:2723:27

Current date and time
Zulu (UTC)  18-Nov-2018 18:06:37
Local (UTC-6)  18-Nov-2018 12:06:37
 
METAR
KSZL 
6nm NE 
181721Z AUTO 34008KT 10SM OVC010 M01/M03 A3028 RMK AO2 SLP265 $
KRCM 
12nm NW 
181755Z AUTO 34005KT 10SM BKN011 OVC019 00/M02 A3031 RMK AO2
KGLY 
18nm S 
181755Z AUTO 00000KT 7SM OVC008 M01/M02 A3031 RMK AO2
TAF
KSZL 
6nm NE 
181650Z 1816/1917 01009KT 9999 OVC009 620095 QNH3027INS BECMG 1817/1818 01009KT 9999 SCT004 OVC010 620105 QNH3025INS BECMG 1818/1819 35009KT 9999 BKN015 620153 QNH3020INS BECMG 1902/1903 22006KT 9999 BKN020 600202 QNH3010INS TX02/1821Z TNM02/1816Z
NOTAMs
Click for the latest NOTAMs
NOTAMs are issued by the DoD/FAA and will open in a separate window not controlled by AirNav.

 

 
 

Would you like to see your business listed on this page?

 If your business provides an interesting product or service to pilots, flight crews, aircraft, or users of the Lake Sexton Airport, you should consider listing it here.  To start the listing process, click on the button below
 
Add a business
 

Other Pages about Lake Sexton Airport

Update a link
 
Copyright © AirNav, LLC. All rights reserved. Privacy Policy  Contact